createdAt,value
2022-09-23T00:01:16.635Z,10.59
2022-09-23T00:03:46.630Z,10.57
2022-09-23T00:06:16.971Z,10.56
2022-09-23T00:08:45.464Z,10.54
2022-09-23T00:11:16.484Z,10.51
2022-09-23T00:13:46.729Z,10.49
2022-09-23T00:16:15.453Z,10.48
2022-09-23T00:18:44.240Z,10.46
2022-09-23T00:21:14.685Z,10.43
2022-09-23T00:23:44.324Z,10.38
2022-09-23T00:26:15.901Z,10.37
2022-09-23T00:28:44.993Z,10.34
2022-09-23T00:31:15.707Z,10.31
2022-09-23T00:33:44.368Z,10.28
2022-09-23T00:36:15.803Z,10.23
2022-09-23T00:38:44.661Z,10.22
2022-09-23T00:41:15.324Z,10.20
2022-09-23T00:43:46.130Z,10.19
2022-09-23T00:46:19.035Z,10.16
2022-09-23T00:48:49.454Z,10.13
2022-09-23T00:51:25.139Z,10.11
2022-09-23T00:53:55.368Z,10.09
2022-09-23T00:56:27.717Z,10.06
2022-09-23T00:58:59.535Z,10.04
2022-09-23T01:01:28.096Z,10.02
2022-09-23T01:03:57.782Z,10.01
2022-09-23T01:06:26.460Z,10.00
2022-09-23T01:08:55.022Z,9.98
2022-09-23T01:11:38.501Z,9.97
2022-09-23T01:14:20.026Z,9.96
2022-09-23T01:16:59.576Z,9.96
2022-09-23T01:19:47.727Z,9.94
2022-09-23T01:22:24.382Z,9.96
2022-09-23T01:25:17.981Z,9.94
2022-09-23T01:28:12.525Z,9.93
2022-09-23T01:30:51.690Z,9.92
2022-09-23T01:33:25.775Z,9.91
2022-09-23T01:36:08.431Z,9.89
2022-09-23T01:38:45.730Z,9.89
2022-09-23T01:41:31.085Z,9.86
2022-09-23T01:44:05.048Z,9.84
2022-09-23T01:46:42.186Z,9.83
2022-09-23T01:49:18.242Z,9.83
2022-09-23T01:51:53.629Z,9.82
2022-09-23T01:54:27.346Z,9.83
2022-09-23T01:57:01.792Z,9.82
2022-09-23T01:59:36.252Z,9.82
2022-09-23T02:02:11.651Z,9.81
2022-09-23T02:04:48.306Z,9.79
2022-09-23T02:07:21.536Z,9.78
2022-09-23T02:09:56.091Z,9.78
2022-09-23T02:12:29.193Z,9.75
2022-09-23T02:15:03.853Z,9.72
2022-09-23T02:17:39.749Z,9.71
2022-09-23T02:20:09.545Z,9.69
2022-09-23T02:22:42.274Z,9.66
2022-09-23T02:25:12.601Z,9.66
2022-09-23T02:27:47.666Z,9.63
2022-09-23T02:30:20.563Z,9.62
2022-09-23T02:32:55.960Z,9.60
2022-09-23T02:35:33.035Z,9.56
2022-09-23T02:38:12.009Z,9.55
2022-09-23T02:40:50.670Z,9.51
2022-09-23T02:43:28.032Z,9.48
2022-09-23T02:45:57.480Z,9.47
2022-09-23T02:48:31.895Z,9.45
2022-09-23T02:51:02.440Z,9.43
2022-09-23T02:53:33.945Z,9.42
2022-09-23T02:56:02.462Z,9.41
2022-09-23T02:58:35.551Z,9.40
2022-09-23T03:01:16.734Z,9.40
2022-09-23T03:03:54.014Z,9.39
2022-09-23T03:06:46.109Z,9.36
2022-09-23T03:09:20.827Z,9.35
2022-09-23T03:11:58.632Z,9.33
2022-09-23T03:14:34.252Z,9.30
2022-09-23T03:17:07.101Z,9.28
2022-09-23T03:19:44.629Z,9.26
2022-09-23T03:22:18.648Z,9.26
2022-09-23T03:24:53.769Z,9.23
2022-09-23T03:27:25.963Z,9.22
2022-09-23T03:29:56.050Z,9.20
2022-09-23T03:32:28.017Z,9.19
2022-09-23T03:35:01.290Z,9.18
2022-09-23T03:37:35.374Z,9.17
2022-09-23T03:40:09.999Z,9.15
2022-09-23T03:42:39.883Z,9.15
2022-09-23T03:45:13.106Z,9.15
2022-09-23T03:47:44.696Z,9.13
2022-09-23T03:50:17.398Z,9.20
2022-09-23T03:52:46.522Z,9.25
2022-09-23T03:55:18.771Z,9.29
2022-09-23T03:57:48.472Z,9.37
2022-09-23T04:00:20.654Z,9.43
2022-09-23T04:02:49.865Z,9.50
2022-09-23T04:05:19.769Z,9.53
2022-09-23T04:07:48.404Z,9.59
2022-09-23T04:10:16.517Z,9.65
2022-09-23T04:12:44.550Z,9.68
2022-09-23T04:15:12.588Z,9.73
2022-09-23T04:17:40.974Z,9.76
2022-09-23T04:20:10.183Z,9.78
2022-09-23T04:22:39.608Z,9.79
2022-09-23T04:25:08.838Z,9.79
2022-09-23T04:27:37.926Z,9.73
2022-09-23T04:30:07.115Z,9.67
2022-09-23T04:32:35.245Z,9.59
2022-09-23T04:35:03.262Z,9.51
2022-09-23T04:37:31.547Z,9.46
2022-09-23T04:40:01.021Z,9.40
2022-09-23T04:42:30.114Z,9.36
2022-09-23T04:44:58.158Z,9.33
2022-09-23T04:47:26.292Z,9.28
2022-09-23T04:49:59.055Z,9.23
2022-09-23T04:52:30.116Z,9.18
2022-09-23T04:55:00.873Z,9.16
2022-09-23T04:57:31.928Z,9.11
2022-09-23T05:00:00.152Z,9.09
2022-09-23T05:02:28.553Z,9.05
2022-09-23T05:04:56.773Z,9.03
2022-09-23T05:07:26.320Z,9.01
2022-09-23T05:09:55.379Z,9.00
2022-09-23T05:12:24.893Z,8.99
2022-09-23T05:14:53.103Z,8.98
2022-09-23T05:17:22.540Z,8.98
2022-09-23T05:19:50.545Z,8.98
2022-09-23T05:22:19.758Z,8.97
2022-09-23T05:24:48.045Z,8.92
2022-09-23T05:27:19.333Z,8.94
2022-09-23T05:29:49.558Z,8.93
2022-09-23T05:32:17.526Z,8.93
2022-09-23T05:34:45.945Z,8.90
2022-09-23T05:37:14.337Z,8.86
2022-09-23T05:39:43.530Z,8.84
2022-09-23T05:42:12.490Z,8.80
2022-09-23T05:44:40.647Z,8.77
2022-09-23T05:47:10.332Z,8.74
2022-09-23T05:49:58.739Z,8.72
2022-09-23T05:52:26.936Z,8.71
2022-09-23T05:54:55.017Z,8.67
2022-09-23T05:57:23.161Z,8.67
2022-09-23T05:59:51.180Z,8.66
2022-09-23T06:02:20.760Z,8.65
2022-09-23T06:04:48.764Z,8.64
2022-09-23T06:07:16.879Z,8.63
2022-09-23T06:09:45.575Z,8.64
2022-09-23T06:12:14.328Z,8.65
2022-09-23T06:14:42.612Z,8.65
2022-09-23T06:17:11.634Z,8.66
2022-09-23T06:19:41.227Z,8.69
2022-09-23T06:22:09.201Z,8.71
2022-09-23T06:24:37.220Z,8.73
2022-09-23T06:27:05.452Z,8.75
2022-09-23T06:29:33.787Z,8.77
2022-09-23T06:32:02.617Z,8.80
2022-09-23T06:34:32.626Z,8.84
2022-09-23T06:37:16.491Z,8.85
2022-09-23T06:39:46.676Z,8.90
2022-09-23T06:42:15.954Z,8.92
2022-09-23T06:44:44.217Z,8.98
2022-09-23T06:47:12.228Z,9.00
2022-09-23T06:49:40.201Z,9.04
2022-09-23T06:52:09.769Z,9.08
2022-09-23T06:54:38.149Z,9.11
2022-09-23T06:57:06.654Z,9.14
2022-09-23T06:59:35.765Z,9.18
2022-09-23T07:02:04.196Z,9.23
2022-09-23T07:04:33.684Z,9.28
2022-09-23T07:07:03.008Z,9.33
2022-09-23T07:09:32.754Z,9.38
2022-09-23T07:12:02.281Z,9.44
2022-09-23T07:14:31.099Z,9.51
2022-09-23T07:17:00.086Z,9.59
2022-09-23T07:19:28.263Z,9.64
2022-09-23T07:21:57.217Z,9.70
2022-09-23T07:24:25.400Z,9.74
2022-09-23T07:26:55.212Z,9.81
2022-09-23T07:29:23.713Z,9.89
2022-09-23T07:31:52.370Z,9.94
2022-09-23T07:34:22.050Z,10.02
2022-09-23T07:36:50.596Z,10.11
2022-09-23T07:39:20.376Z,10.18
2022-09-23T07:41:49.957Z,10.24
2022-09-23T07:44:21.934Z,10.28
2022-09-23T07:46:57.464Z,10.35
2022-09-23T07:49:25.808Z,10.40
2022-09-23T07:51:54.106Z,10.45
2022-09-23T07:54:22.298Z,10.49
2022-09-23T07:56:50.360Z,10.57
2022-09-23T07:59:20.151Z,10.64
2022-09-23T08:01:50.653Z,10.69
2022-09-23T08:04:24.132Z,10.74
2022-09-23T08:06:54.730Z,10.74
2022-09-23T08:09:25.393Z,10.80
2022-09-23T08:11:54.127Z,10.90
2022-09-23T08:14:24.384Z,10.93
2022-09-23T08:16:53.385Z,10.95
2022-09-23T08:19:21.704Z,10.98
2022-09-23T08:21:52.425Z,11.01
2022-09-23T08:24:23.751Z,11.08
2022-09-23T08:26:54.441Z,11.06
2022-09-23T08:29:26.898Z,11.09
2022-09-23T08:31:55.678Z,11.13
2022-09-23T08:34:25.134Z,11.16
2022-09-23T08:36:53.524Z,11.23
2022-09-23T08:39:23.618Z,11.31
2022-09-23T08:42:06.886Z,11.39
2022-09-23T08:44:47.919Z,11.44
2022-09-23T08:47:22.019Z,11.46
2022-09-23T08:49:58.572Z,11.50
2022-09-23T08:52:34.242Z,11.60
2022-09-23T08:55:04.910Z,11.67
2022-09-23T08:57:44.185Z,11.74
2022-09-23T09:00:22.044Z,11.77
2022-09-23T09:02:51.588Z,11.80
2022-09-23T09:05:27.350Z,11.89
2022-09-23T09:07:59.521Z,11.91
2022-09-23T09:10:35.231Z,11.91
2022-09-23T09:13:07.664Z,11.94
2022-09-23T09:15:43.570Z,12.10
2022-09-23T09:18:19.867Z,12.26
2022-09-23T09:20:54.945Z,12.33
2022-09-23T09:23:25.617Z,12.37
2022-09-23T09:25:58.555Z,12.39
2022-09-23T09:28:34.039Z,12.50
2022-09-23T09:31:12.196Z,12.59
2022-09-23T09:33:45.981Z,12.64
2022-09-23T09:36:24.983Z,12.56
2022-09-23T09:38:54.534Z,12.49
2022-09-23T09:41:24.758Z,12.53
2022-09-23T09:43:56.423Z,12.58
2022-09-23T09:46:48.171Z,12.71
2022-09-23T09:49:26.622Z,12.83
2022-09-23T09:52:14.317Z,12.85
2022-09-23T09:54:44.725Z,12.89
2022-09-23T09:57:22.159Z,12.99
2022-09-23T09:59:50.734Z,13.00
2022-09-23T10:02:29.386Z,13.06
2022-09-23T10:05:06.306Z,13.15
2022-09-23T10:07:36.813Z,13.21
2022-09-23T10:10:32.235Z,13.26
2022-09-23T10:13:16.103Z,13.23
2022-09-23T10:15:46.033Z,13.28
2022-09-23T10:18:21.087Z,13.33
2022-09-23T10:20:50.667Z,13.36
2022-09-23T10:23:24.112Z,13.44
2022-09-23T10:26:00.199Z,13.46
2022-09-23T10:28:43.211Z,13.59
2022-09-23T10:31:14.260Z,13.73
2022-09-23T10:33:50.012Z,13.83
2022-09-23T10:36:18.929Z,13.97
2022-09-23T10:38:50.685Z,14.15
2022-09-23T10:41:45.951Z,14.28
2022-09-23T10:44:45.631Z,14.59
2022-09-23T10:47:24.293Z,14.93
2022-09-23T10:50:12.033Z,15.28
2022-09-23T10:52:50.233Z,15.51
2022-09-23T10:55:32.074Z,15.66
2022-09-23T10:58:21.674Z,15.79
2022-09-23T11:01:05.692Z,16.01
2022-09-23T11:04:03.457Z,16.04
2022-09-23T11:06:49.096Z,16.17
2022-09-23T11:09:32.296Z,16.40
2022-09-23T11:12:13.458Z,16.49
2022-09-23T11:14:52.378Z,16.57
2022-09-23T11:17:44.349Z,16.80
2022-09-23T11:20:28.874Z,17.12
2022-09-23T11:23:19.273Z,17.81
2022-09-23T11:26:19.169Z,18.30
2022-09-23T11:29:14.622Z,17.61
2022-09-23T11:31:58.819Z,17.32
2022-09-23T11:35:05.099Z,16.95
2022-09-23T11:37:39.910Z,16.65
2022-09-23T11:40:18.117Z,16.75
2022-09-23T11:42:55.402Z,16.76
2022-09-23T11:45:29.535Z,17.56
2022-09-23T11:48:04.332Z,18.14
2022-09-23T11:50:38.881Z,18.72
2022-09-23T11:53:14.389Z,18.59
2022-09-23T11:55:57.495Z,18.40
2022-09-23T11:58:30.896Z,17.82
2022-09-23T12:01:04.427Z,17.24
2022-09-23T12:03:45.777Z,16.74
2022-09-23T12:06:20.345Z,16.44
2022-09-23T12:08:53.250Z,16.50
2022-09-23T12:11:32.060Z,16.43
2022-09-23T12:14:14.459Z,17.07
2022-09-23T12:17:07.685Z,17.69
2022-09-23T12:20:04.092Z,17.97
2022-09-23T12:22:49.847Z,18.46
2022-09-23T12:25:47.255Z,18.80
2022-09-23T12:28:23.510Z,19.17
2022-09-23T12:30:54.972Z,19.51
2022-09-23T12:33:26.518Z,19.45
2022-09-23T12:35:56.150Z,18.97
2022-09-23T12:38:30.905Z,18.53
2022-09-23T12:40:59.084Z,18.22
2022-09-23T12:43:34.600Z,17.96
2022-09-23T12:46:20.890Z,17.68
2022-09-23T12:49:02.951Z,17.84
2022-09-23T12:51:32.173Z,18.19
2022-09-23T12:54:22.745Z,18.53
2022-09-23T12:57:12.080Z,18.86
2022-09-23T13:00:14.777Z,19.03
2022-09-23T13:03:13.270Z,19.10
2022-09-23T13:06:05.768Z,19.30
2022-09-23T13:08:39.001Z,19.45
2022-09-23T13:11:18.006Z,19.59
2022-09-23T13:13:49.907Z,19.66
2022-09-23T13:16:27.241Z,19.75
2022-09-23T13:18:57.025Z,19.92
2022-09-23T13:22:13.658Z,19.89
2022-09-23T13:24:46.608Z,19.93
2022-09-23T13:27:20.891Z,19.99
2022-09-23T13:29:54.793Z,19.77
2022-09-23T13:32:30.015Z,19.53
2022-09-23T13:35:01.958Z,19.20
2022-09-23T13:37:40.132Z,19.11
2022-09-23T13:40:10.863Z,19.39
2022-09-23T13:42:41.993Z,19.56
2022-09-23T13:45:17.064Z,19.87
2022-09-23T13:47:55.522Z,20.21
2022-09-23T13:50:25.620Z,20.60
2022-09-23T13:52:54.970Z,20.71
2022-09-23T13:55:32.350Z,20.63
2022-09-23T13:58:02.589Z,20.59
2022-09-23T14:00:36.476Z,20.63
2022-09-23T14:03:18.050Z,20.58
2022-09-23T14:05:49.465Z,20.51
2022-09-23T14:08:17.530Z,20.34
2022-09-23T14:10:47.200Z,19.98
2022-09-23T14:13:25.927Z,19.63
2022-09-23T14:15:57.749Z,19.24
2022-09-23T14:18:34.463Z,19.04
2022-09-23T14:21:06.414Z,19.01
2022-09-23T14:23:48.469Z,18.99
2022-09-23T14:26:21.658Z,18.80
2022-09-23T14:28:59.977Z,18.54
2022-09-23T14:31:33.061Z,17.65
2022-09-23T14:34:02.671Z,16.87
2022-09-23T14:36:55.222Z,16.47
2022-09-23T14:39:23.988Z,16.47
2022-09-23T14:41:52.551Z,16.67
2022-09-23T14:44:25.172Z,16.80
2022-09-23T14:46:58.278Z,16.90
2022-09-23T14:49:30.117Z,17.02
2022-09-23T14:52:04.220Z,17.14
2022-09-23T14:54:36.756Z,17.34
2022-09-23T14:57:32.197Z,17.38
2022-09-23T15:00:03.974Z,17.53
2022-09-23T15:02:35.232Z,17.66
2022-09-23T15:05:19.730Z,17.80
2022-09-23T15:08:01.531Z,17.95
2022-09-23T15:10:33.002Z,18.06
2022-09-23T15:13:06.673Z,18.06
2022-09-23T15:15:37.672Z,17.87
2022-09-23T15:18:08.385Z,17.67
2022-09-23T15:20:37.988Z,17.49
2022-09-23T15:23:06.014Z,17.33
2022-09-23T15:25:36.033Z,17.23
2022-09-23T15:28:18.856Z,17.07
2022-09-23T15:30:47.036Z,17.07
2022-09-23T15:33:16.648Z,17.13
2022-09-23T15:35:50.197Z,17.27
2022-09-23T15:38:18.916Z,17.29
2022-09-23T15:40:47.441Z,17.06
2022-09-23T15:43:21.920Z,16.74
2022-09-23T15:45:53.371Z,16.66
2022-09-23T15:48:24.052Z,16.52
2022-09-23T15:50:54.877Z,16.40
2022-09-23T15:53:25.875Z,16.28
2022-09-23T15:55:54.214Z,16.01
2022-09-23T15:58:26.237Z,15.57
2022-09-23T16:00:57.268Z,15.08
2022-09-23T16:03:28.609Z,14.81
2022-09-23T16:06:02.433Z,14.66
2022-09-23T16:08:33.027Z,14.48
2022-09-23T16:11:01.434Z,14.44
2022-09-23T16:13:29.525Z,14.39
2022-09-23T16:15:57.754Z,14.51
2022-09-23T16:18:25.875Z,14.56
2022-09-23T16:20:54.844Z,14.65
2022-09-23T16:23:34.656Z,14.78
2022-09-23T16:26:08.438Z,14.80
2022-09-23T16:28:36.489Z,14.90
2022-09-23T16:31:04.687Z,14.94
2022-09-23T16:33:32.979Z,14.98
2022-09-23T16:36:02.054Z,14.94
2022-09-23T16:38:34.003Z,14.90
2022-09-23T16:41:03.063Z,14.89
2022-09-23T16:43:39.545Z,14.87
2022-09-23T16:46:09.438Z,14.82
2022-09-23T16:48:40.590Z,14.81
2022-09-23T16:51:09.186Z,14.93
2022-09-23T16:53:39.330Z,14.95
2022-09-23T16:56:09.706Z,15.03
2022-09-23T16:58:37.518Z,15.08
2022-09-23T17:01:23.938Z,15.19
2022-09-23T17:03:52.186Z,15.17
2022-09-23T17:06:21.068Z,15.15
2022-09-23T17:08:51.185Z,15.08
2022-09-23T17:11:19.499Z,15.06
2022-09-23T17:13:47.811Z,14.99
2022-09-23T17:16:25.599Z,14.92
2022-09-23T17:18:56.097Z,14.88
2022-09-23T17:21:26.822Z,14.85
2022-09-23T17:23:57.929Z,14.91
2022-09-23T17:26:27.570Z,14.91
2022-09-23T17:28:58.051Z,14.94
2022-09-23T17:31:26.716Z,14.95
2022-09-23T17:33:55.047Z,14.95
2022-09-23T17:36:25.238Z,14.93
2022-09-23T17:38:54.596Z,14.87
2022-09-23T17:41:28.681Z,14.85
2022-09-23T17:44:00.558Z,14.73
2022-09-23T17:46:33.516Z,14.71
2022-09-23T17:49:05.778Z,14.67
2022-09-23T17:51:35.447Z,14.62
2022-09-23T17:54:03.899Z,14.55
2022-09-23T17:56:36.928Z,14.48
2022-09-23T17:59:06.992Z,14.39
2022-09-23T18:01:41.484Z,14.29
2022-09-23T18:04:09.665Z,14.25
2022-09-23T18:07:48.955Z,14.12
2022-09-23T18:09:40.124Z,13.90
2022-09-23T18:12:09.754Z,13.82
2022-09-23T18:14:45.171Z,13.72
2022-09-23T18:17:30.927Z,13.65
2022-09-23T18:20:01.290Z,13.62
2022-09-23T18:22:30.645Z,13.58
2022-09-23T18:24:59.069Z,13.50
2022-09-23T18:27:29.650Z,13.46
2022-09-23T18:30:00.924Z,13.44
2022-09-23T18:32:34.761Z,13.40
2022-09-23T18:35:03.348Z,13.43
2022-09-23T18:37:33.386Z,13.41
2022-09-23T18:40:01.716Z,13.42
2022-09-23T18:42:34.635Z,13.45
2022-09-23T18:45:03.045Z,13.44
2022-09-23T18:47:48.652Z,13.46
2022-09-23T18:50:34.423Z,13.45
2022-09-23T18:53:34.951Z,13.42
2022-09-23T18:55:54.025Z,13.41
2022-09-23T18:58:23.699Z,13.40
2022-09-23T19:00:56.935Z,13.37
2022-09-23T19:03:26.299Z,13.37
2022-09-23T19:05:56.380Z,13.37
2022-09-23T19:08:30.682Z,13.39
2022-09-23T19:11:03.151Z,13.41
2022-09-23T19:13:35.743Z,13.39
2022-09-23T19:16:05.208Z,13.39
2022-09-23T19:18:35.182Z,13.39
2022-09-23T19:21:12.833Z,13.40
2022-09-23T19:23:48.880Z,13.32
2022-09-23T19:26:20.146Z,13.34
2022-09-23T19:28:55.416Z,13.29
2022-09-23T19:31:26.487Z,13.30
2022-09-23T19:33:56.822Z,13.30
2022-09-23T19:36:27.057Z,13.31
2022-09-23T19:38:58.314Z,13.31
2022-09-23T19:41:28.323Z,13.29
2022-09-23T19:43:58.768Z,13.25
2022-09-23T19:46:37.448Z,13.21
2022-09-23T19:49:07.970Z,13.21
2022-09-23T19:51:38.824Z,13.19
2022-09-23T19:54:12.263Z,13.19
2022-09-23T19:56:41.332Z,13.20
2022-09-23T19:59:14.149Z,13.16
2022-09-23T20:01:47.644Z,13.12
2022-09-23T20:04:25.469Z,13.08
2022-09-23T20:06:54.313Z,13.03
2022-09-23T20:09:25.164Z,13.01
2022-09-23T20:12:00.398Z,12.95
2022-09-23T20:14:31.367Z,12.86
2022-09-23T20:17:23.436Z,12.78
2022-09-23T20:19:53.719Z,12.68
2022-09-23T20:22:32.924Z,12.60
2022-09-23T20:25:15.829Z,12.52
2022-09-23T20:27:43.036Z,12.42
2022-09-23T20:30:14.915Z,12.39
2022-09-23T20:32:44.899Z,12.35
2022-09-23T20:35:13.727Z,12.34
2022-09-23T20:37:45.228Z,12.32
2022-09-23T20:40:13.731Z,12.32
2022-09-23T20:42:46.165Z,12.30
2022-09-23T20:45:16.926Z,12.29
2022-09-23T20:47:45.440Z,12.27
2022-09-23T20:50:13.773Z,12.25
2022-09-23T20:52:42.369Z,12.24
2022-09-23T20:55:11.368Z,12.24
2022-09-23T20:57:39.926Z,12.21
2022-09-23T21:00:09.235Z,12.21
2022-09-23T21:02:38.779Z,12.23
2022-09-23T21:05:08.258Z,12.19
2022-09-23T21:07:37.880Z,12.16
2022-09-23T21:10:10.705Z,12.10
2022-09-23T21:12:38.907Z,12.05
2022-09-23T21:15:09.061Z,11.94
2022-09-23T21:17:38.557Z,11.85
2022-09-23T21:20:11.330Z,11.75
2022-09-23T21:22:39.602Z,11.63
2022-09-23T21:28:09.453Z,11.41
2022-09-23T21:30:41.992Z,11.35
2022-09-23T21:33:17.555Z,11.24
2022-09-23T21:35:46.977Z,11.20
2022-09-23T21:38:15.450Z,11.12
2022-09-23T21:40:58.751Z,11.09
2022-09-23T21:43:28.433Z,11.04
2022-09-23T21:45:59.709Z,10.99
2022-09-23T21:48:31.225Z,10.94
2022-09-23T21:51:01.169Z,10.89
2022-09-23T21:53:34.628Z,10.86
2022-09-23T21:56:05.025Z,10.81
2022-09-23T21:58:48.549Z,10.77
2022-09-23T22:01:18.661Z,10.70
2022-09-23T22:03:50.889Z,10.69
2022-09-23T22:06:21.671Z,10.67
2022-09-23T22:08:51.663Z,10.63
2022-09-23T22:11:38.723Z,10.60
2022-09-23T22:14:09.314Z,10.57
2022-09-23T22:16:40.653Z,10.53
2022-09-23T22:19:23.083Z,10.49
2022-09-23T22:21:52.681Z,10.46
2022-09-23T22:24:22.025Z,10.42
2022-09-23T22:26:50.583Z,10.36
2022-09-23T22:29:39.836Z,10.32
2022-09-23T22:33:16.622Z,10.29
2022-09-23T22:35:21.024Z,10.26
2022-09-23T22:37:55.351Z,10.23
2022-09-23T22:40:25.276Z,10.21
2022-09-23T22:42:56.305Z,10.16
2022-09-23T22:45:31.081Z,10.09
2022-09-23T22:48:11.388Z,10.09
2022-09-23T22:50:42.200Z,10.05
2022-09-23T22:53:13.075Z,10.04
2022-09-23T22:56:04.705Z,9.98
2022-09-23T22:58:34.085Z,9.97
2022-09-23T23:01:04.306Z,9.93
2022-09-23T23:03:45.241Z,9.93
2022-09-23T23:06:23.565Z,9.87
2022-09-23T23:09:00.181Z,9.89
2022-09-23T23:11:31.305Z,9.84
2022-09-23T23:14:02.828Z,9.82
2022-09-23T23:16:40.337Z,9.83
2022-09-23T23:19:34.477Z,9.81
2022-09-23T23:22:15.274Z,9.79
2022-09-23T23:24:45.065Z,9.76
2022-09-23T23:27:15.361Z,9.75
2022-09-23T23:29:45.540Z,9.75
2022-09-23T23:32:16.937Z,9.75
2022-09-23T23:34:47.347Z,9.73
2022-09-23T23:37:20.890Z,9.68
2022-09-23T23:39:51.544Z,9.67
2022-09-23T23:42:24.843Z,9.66
2022-09-23T23:44:56.748Z,9.65
2022-09-23T23:47:27.877Z,9.65
2022-09-23T23:49:58.558Z,9.65
2022-09-23T23:52:33.701Z,9.64
2022-09-23T23:55:06.804Z,9.63
2022-09-23T23:57:43.754Z,9.66
